Time;durP1;ratioP1;P1;durP2;ratioP2;P2;SDS_P1;SDS_P2;PMS_P1;PMS_P2;Temp;Humidity;BMP_temperature;BMP_pressure;BME280_temperature;BME280_humidity;BME280_pressure;Samples;Min_cycle;Max_cycle;Signal;HPM_P1;HPM_P2
2023/12/12 00:02:07;;;;;;;14.00;3.97;;;9.80;1.00;;;;;;6221772;23;20538;-85
2023/12/12 00:04:33;;;;;;;21.87;5.40;;;9.80;1.00;;;;;;6222524;23;20389;-83
2023/12/12 00:07:01;;;;;;;16.70;3.43;;;9.70;1.00;;;;;;6221264;23;20216;-84
2023/12/12 00:09:26;;;;;;;24.03;4.60;;;9.80;1.00;;;;;;6222265;23;20669;-85
2023/12/12 00:11:55;;;;;;;13.67;4.07;;;9.70;1.00;;;;;;6222134;23;20408;-84
2023/12/12 00:14:25;;;;;;;12.03;4.20;;;9.70;1.00;;;;;;6222606;23;20178;-84
2023/12/12 00:16:51;;;;;;;12.20;3.50;;;9.70;1.00;;;;;;6221870;23;20381;-84
2023/12/12 00:19:20;;;;;;;16.57;3.60;;;9.70;1.00;;;;;;6223019;23;20403;-84
2023/12/12 00:21:45;;;;;;;15.90;4.00;;;9.70;1.00;;;;;;6221514;23;20575;-83
2023/12/12 00:24:13;;;;;;;11.77;4.10;;;9.70;1.00;;;;;;6223909;23;20453;-85
2023/12/12 00:26:39;;;;;;;12.00;3.50;;;9.70;1.00;;;;;;6222442;23;20168;-85
2023/12/12 00:29:04;;;;;;;15.70;5.07;;;9.60;1.00;;;;;;6223829;23;20405;-84
2023/12/12 00:31:30;;;;;;;17.53;4.03;;;9.60;1.00;;;;;;6223452;23;20187;-85
2023/12/12 00:33:56;;;;;;;11.47;3.50;;;9.60;1.00;;;;;;6226775;23;20181;-84
2023/12/12 00:36:24;;;;;;;13.53;3.80;;;9.50;1.00;;;;;;6225575;23;20154;-85
2023/12/12 00:38:49;;;;;;;11.47;4.40;;;9.50;1.00;;;;;;6237832;23;20130;-84
2023/12/12 00:41:15;;;;;;;14.40;3.37;;;9.50;1.00;;;;;;6239813;23;20427;-84
2023/12/12 00:43:41;;;;;;;15.87;4.50;;;9.50;1.00;;;;;;6230704;23;20162;-84
2023/12/12 00:46:10;;;;;;;16.47;4.93;;;9.50;1.00;;;;;;6220732;23;20614;-84
2023/12/12 00:48:35;;;;;;;15.33;4.90;;;9.50;1.00;;;;;;6221226;23;20233;-84
2023/12/12 00:51:07;;;;;;;14.53;4.10;;;9.50;1.00;;;;;;6222070;23;21079;-85
2023/12/12 00:53:35;;;;;;;19.80;4.33;;;9.40;1.00;;;;;;6220845;23;20413;-85
2023/12/12 00:56:01;;;;;;;19.43;3.83;;;9.40;1.00;;;;;;6220968;23;20385;-85
2023/12/12 00:58:27;;;;;;;21.63;4.83;;;9.40;1.00;;;;;;6220002;23;20884;-85
2023/12/12 01:00:52;;;;;;;21.30;3.80;;;9.40;1.00;;;;;;6220762;23;20174;-84
2023/12/12 01:03:20;;;;;;;16.50;4.73;;;9.40;1.00;;;;;;6219820;23;20225;-83
2023/12/12 01:05:46;;;;;;;23.70;7.37;;;9.30;1.00;;;;;;6220671;23;20602;-84
2023/12/12 01:08:12;;;;;;;19.37;4.07;;;9.30;1.00;;;;;;6220870;23;20392;-84
2023/12/12 01:10:40;;;;;;;24.83;4.67;;;9.30;1.00;;;;;;6220158;23;20184;-84
2023/12/12 01:13:09;;;;;;;15.33;4.60;;;9.30;1.00;;;;;;6220176;23;20165;-84
2023/12/12 01:15:37;;;;;;;20.43;5.57;;;9.30;1.00;;;;;;6220494;23;20857;-84
2023/12/12 01:18:03;;;;;;;14.60;4.23;;;9.20;1.00;;;;;;6221989;23;20409;-83
2023/12/12 01:20:28;;;;;;;21.03;5.30;;;9.20;1.00;;;;;;6219554;23;20401;-83
2023/12/12 01:23:00;;;;;;;17.67;4.63;;;9.20;1.00;;;;;;6219517;23;20189;-83
2023/12/12 01:25:31;;;;;;;24.77;5.00;;;9.10;1.00;;;;;;6219513;23;20175;-84
2023/12/12 01:27:59;;;;;;;20.33;4.60;;;9.10;1.00;;;;;;6220259;23;20480;-84
2023/12/12 01:30:27;;;;;;;22.17;5.70;;;9.10;1.00;;;;;;6219305;23;20845;-84
2023/12/12 01:32:58;;;;;;;37.93;5.23;;;9.00;1.00;;;;;;6219342;23;20476;-84
2023/12/12 01:35:24;;;;;;;29.20;6.23;;;9.00;1.00;;;;;;6220115;23;20388;-85
2023/12/12 01:37:49;;;;;;;24.30;5.27;;;9.10;1.00;;;;;;6219367;23;21051;-84
2023/12/12 01:40:15;;;;;;;22.93;5.73;;;9.10;1.00;;;;;;6219409;23;20208;-84
2023/12/12 01:42:41;;;;;;;12.10;3.90;;;9.10;1.00;;;;;;6219102;23;20150;-84
2023/12/12 01:45:07;;;;;;;23.90;4.97;;;9.10;1.00;;;;;;6219420;23;20153;-85
2023/12/12 01:47:33;;;;;;;20.17;5.40;;;9.10;1.00;;;;;;6220355;23;20389;-83
2023/12/12 01:49:59;;;;;;;17.43;4.47;;;9.10;1.00;;;;;;6220697;23;20420;-85
2023/12/12 01:52:32;;;;;;;20.70;4.93;;;9.10;1.00;;;;;;6219140;23;20884;-85
2023/12/12 01:54:58;;;;;;;19.77;4.30;;;9.00;1.00;;;;;;6218582;23;20420;-85
2023/12/12 01:57:24;;;;;;;19.73;5.00;;;9.00;1.00;;;;;;6218955;23;20377;-84
2023/12/12 01:59:59;;;;;;;16.07;5.00;;;8.90;1.00;;;;;;6220440;23;20444;-85
2023/12/12 02:02:25;;;;;;;29.97;4.50;;;8.90;1.00;;;;;;6218193;23;20405;-85
2023/12/12 02:04:51;;;;;;;23.70;5.23;;;8.90;1.00;;;;;;6219532;23;20461;-84
2023/12/12 02:07:18;;;;;;;21.87;5.07;;;8.80;1.00;;;;;;6219043;23;20229;-85
2023/12/12 02:09:52;;;;;;;21.77;4.03;;;8.80;1.00;;;;;;6219364;23;20162;-83
2023/12/12 02:12:23;;;;;;;30.77;5.10;;;8.70;1.00;;;;;;6218756;23;20741;-85
2023/12/12 02:14:51;;;;;;;14.10;5.30;;;8.70;1.00;;;;;;6219177;23;20442;-84
2023/12/12 02:17:17;;;;;;;22.97;4.40;;;8.60;1.00;;;;;;6220488;23;20379;-84
2023/12/12 02:19:46;;;;;;;36.43;6.00;;;8.60;1.00;;;;;;6219439;23;20570;-84
2023/12/12 02:22:12;;;;;;;22.80;6.07;;;8.60;1.00;;;;;;6218783;23;20245;-83
2023/12/12 02:24:37;;;;;;;17.07;4.70;;;8.70;1.00;;;;;;6220945;23;20377;-84
2023/12/12 02:27:07;;;;;;;20.93;5.33;;;8.70;1.00;;;;;;6221125;23;20158;-84
2023/12/12 02:29:34;;;;;;;30.23;6.00;;;8.70;1.00;;;;;;6219058;23;20162;-85
2023/12/12 02:31:59;;;;;;;28.40;5.33;;;8.80;1.00;;;;;;6219092;23;20427;-83
2023/12/12 02:34:28;;;;;;;18.50;6.40;;;8.90;1.00;;;;;;6219350;23;20417;-84
2023/12/12 02:36:54;;;;;;;26.57;5.80;;;8.90;1.00;;;;;;6219406;23;20178;-83
2023/12/12 02:39:20;;;;;;;26.03;5.10;;;9.00;1.00;;;;;;6219016;23;20408;-84
2023/12/12 02:41:48;;;;;;;14.30;4.63;;;9.00;1.00;;;;;;6220611;23;20170;-85
2023/12/12 02:44:17;;;;;;;18.70;4.80;;;9.10;1.00;;;;;;6219077;23;20162;-84
2023/12/12 02:46:42;;;;;;;21.83;4.57;;;9.10;1.00;;;;;;6218926;23;20396;-85
2023/12/12 02:49:09;;;;;;;21.10;6.00;;;9.10;1.00;;;;;;6219634;23;20381;-83
2023/12/12 02:51:41;;;;;;;25.97;6.40;;;9.10;1.00;;;;;;6219959;23;20178;-84
2023/12/12 02:54:06;;;;;;;24.70;5.20;;;9.20;1.00;;;;;;6220096;23;20507;-84
2023/12/12 02:56:33;;;;;;;34.33;5.77;;;9.20;1.00;;;;;;6219093;23;20392;-84
2023/12/12 02:59:01;;;;;;;27.77;7.00;;;9.20;1.00;;;;;;6219455;23;20238;-84
2023/12/12 03:01:27;;;;;;;31.33;5.00;;;9.20;1.00;;;;;;6225492;23;20393;-84
2023/12/12 03:03:53;;;;;;;33.37;6.30;;;9.20;1.00;;;;;;6224396;23;20408;-84
2023/12/12 03:06:18;;;;;;;17.60;4.87;;;9.20;1.00;;;;;;6223810;23;20381;-85
2023/12/12 03:08:44;;;;;;;17.33;5.30;;;9.10;1.00;;;;;;6225384;23;20415;-84
2023/12/12 03:11:10;;;;;;;29.73;6.00;;;9.10;1.00;;;;;;6223766;23;20182;-84
2023/12/12 03:13:41;;;;;;;22.17;4.87;;;9.10;1.00;;;;;;6224425;23;20208;-84
2023/12/12 03:16:07;;;;;;;30.30;6.90;;;9.10;1.00;;;;;;6224474;23;20145;-85
2023/12/12 03:18:35;;;;;;;20.00;4.80;;;9.10;1.00;;;;;;6223688;23;20408;-85
2023/12/12 03:21:01;;;;;;;23.80;6.20;;;9.10;1.00;;;;;;6225862;23;20389;-85
2023/12/12 03:23:27;;;;;;;26.63;6.73;;;9.10;1.00;;;;;;6224183;23;20385;-84
2023/12/12 03:25:55;;;;;;;19.00;5.67;;;9.10;1.00;;;;;;6223138;23;20161;-84
2023/12/12 03:28:30;;;;;;;22.43;5.03;;;9.10;1.00;;;;;;6225590;23;20150;-84
2023/12/12 03:30:56;;;;;;;16.90;6.00;;;9.20;1.00;;;;;;6223781;23;20408;-85
2023/12/12 03:33:21;;;;;;;12.80;6.43;;;9.20;1.00;;;;;;6223099;23;20427;-85
2023/12/12 03:35:47;;;;;;;31.53;5.73;;;9.20;1.00;;;;;;6225053;23;20150;-85
2023/12/12 03:38:13;;;;;;;15.30;5.40;;;9.20;1.00;;;;;;6226058;23;20158;-86
2023/12/12 03:40:38;;;;;;;23.83;5.63;;;9.20;1.00;;;;;;6254109;22;20173;-87
2023/12/12 03:43:04;;;;;;;21.10;6.40;;;9.30;1.00;;;;;;6232186;23;20634;-85
2023/12/12 03:45:29;;;;;;;25.93;5.80;;;9.30;1.00;;;;;;6234004;23;20154;-86
2023/12/12 03:47:55;;;;;;;27.20;5.57;;;9.30;1.00;;;;;;6227222;23;20173;-84
2023/12/12 03:50:20;;;;;;;18.97;4.97;;;9.30;1.00;;;;;;6222071;23;20157;-84
2023/12/12 03:52:49;;;;;;;17.40;5.27;;;9.30;1.00;;;;;;6222906;23;20594;-84
2023/12/12 03:55:14;;;;;;;22.77;4.90;;;9.30;1.00;;;;;;6221039;23;20236;-84
2023/12/12 03:57:40;;;;;;;17.43;4.47;;;9.30;1.00;;;;;;6222952;23;20369;-86
2023/12/12 04:00:07;;;;;;;22.27;5.00;;;9.30;1.00;;;;;;6220877;23;20165;-85
2023/12/12 04:02:32;;;;;;;21.93;5.60;;;9.30;1.00;;;;;;6219584;23;20170;-84
2023/12/12 04:04:58;;;;;;;20.93;5.00;;;9.30;1.00;;;;;;6220568;23;20393;-84
2023/12/12 04:07:23;;;;;;;17.10;5.10;;;9.30;1.00;;;;;;6223554;23;20146;-85
2023/12/12 04:09:49;;;;;;;32.23;6.13;;;9.20;1.00;;;;;;6221760;23;20187;-84
2023/12/12 04:12:18;;;;;;;24.80;6.93;;;9.20;1.00;;;;;;6220892;23;20178;-85
2023/12/12 04:14:44;;;;;;;19.27;6.00;;;9.10;1.00;;;;;;6219829;23;20209;-84
2023/12/12 04:17:09;;;;;;;28.73;6.17;;;9.00;1.00;;;;;;6220625;23;20385;-84
2023/12/12 04:19:35;;;;;;;45.13;13.80;;;9.00;1.00;;;;;;6220390;23;20142;-84
2023/12/12 04:22:00;;;;;;;53.03;20.43;;;9.00;1.00;;;;;;6218486;23;20224;-84
2023/12/12 04:24:26;;;;;;;91.23;34.70;;;9.00;1.00;;;;;;6219942;23;20162;-84
2023/12/12 04:26:55;;;;;;;222.23;77.70;;;8.90;1.00;;;;;;6219025;23;20157;-84
2023/12/12 04:29:21;;;;;;;47.53;14.43;;;8.90;1.00;;;;;;6218885;23;20531;-85
2023/12/12 04:31:50;;;;;;;32.37;8.93;;;8.80;1.00;;;;;;6219520;23;20397;-85
2023/12/12 04:34:15;;;;;;;256.57;106.57;;;8.80;1.00;;;;;;6220571;23;20253;-85
2023/12/12 04:36:41;;;;;;;151.10;61.90;;;8.70;1.00;;;;;;6219711;23;20397;-84
2023/12/12 04:39:14;;;;;;;44.00;16.77;;;8.70;1.00;;;;;;6216472;23;20181;-84
2023/12/12 04:41:39;;;;;;;229.27;99.43;;;8.70;1.00;;;;;;6217827;23;20794;-87
2023/12/12 04:44:07;;;;;;;71.47;34.83;;;8.70;1.00;;;;;;6220174;23;20381;-83
2023/12/12 04:46:32;;;;;;;44.07;18.30;;;8.70;1.00;;;;;;6219957;23;20377;-84
2023/12/12 04:49:00;;;;;;;54.87;20.60;;;8.70;1.00;;;;;;6217448;23;20400;-85
2023/12/12 04:51:28;;;;;;;30.77;9.53;;;8.70;1.00;;;;;;6217735;23;20178;-84
2023/12/12 04:53:56;;;;;;;54.90;22.17;;;8.70;1.00;;;;;;6219203;23;20413;-84
2023/12/12 04:56:22;;;;;;;48.73;24.10;;;8.80;1.00;;;;;;6217390;23;20796;-84
2023/12/12 04:58:47;;;;;;;53.97;28.43;;;8.90;1.00;;;;;;6217683;23;20381;-84
2023/12/12 05:01:19;;;;;;;40.13;23.47;;;8.90;1.00;;;;;;6217301;23;20174;-85
2023/12/12 05:03:47;;;;;;;28.53;10.53;;;8.90;1.00;;;;;;6216892;23;20185;-84
2023/12/12 05:06:13;;;;;;;34.97;10.87;;;8.90;1.00;;;;;;6218920;23;20384;-84
2023/12/12 05:08:41;;;;;;;28.07;9.10;;;9.00;1.00;;;;;;6218803;23;20819;-83
2023/12/12 05:11:13;;;;;;;37.63;9.43;;;9.00;1.00;;;;;;6216648;23;20208;-84
2023/12/12 05:13:42;;;;;;;26.03;9.23;;;9.00;1.00;;;;;;6217096;23;20425;-84
2023/12/12 05:16:09;;;;;;;22.83;7.40;;;9.00;1.00;;;;;;6217650;23;20520;-84
2023/12/12 05:18:35;;;;;;;29.10;7.40;;;8.90;1.00;;;;;;6217405;23;20389;-84
2023/12/12 05:21:03;;;;;;;18.60;6.33;;;8.90;1.00;;;;;;6217590;23;20397;-84
2023/12/12 05:23:29;;;;;;;23.80;7.17;;;8.80;1.00;;;;;;6218119;23;20161;-85
2023/12/12 05:25:57;;;;;;;22.73;7.70;;;8.70;1.00;;;;;;6220292;23;20417;-84
2023/12/12 05:28:25;;;;;;;22.38;5.95;;;8.70;1.00;;;;;;6217615;23;20204;-84
2023/12/12 05:30:51;;;;;;;18.10;6.10;;;8.60;1.00;;;;;;6218922;23;20522;-84
2023/12/12 05:33:16;;;;;;;21.97;8.40;;;8.50;1.00;;;;;;6217956;23;20431;-85
2023/12/12 05:35:42;;;;;;;22.80;7.60;;;8.50;1.00;;;;;;6219365;23;20166;-84
2023/12/12 05:38:07;;;;;;;23.13;8.80;;;8.50;1.00;;;;;;6219115;23;20154;-84
2023/12/12 05:40:33;;;;;;;23.70;6.50;;;8.40;1.00;;;;;;6218469;23;20497;-85
2023/12/12 05:42:59;;;;;;;19.93;6.00;;;8.40;1.00;;;;;;6218578;23;20231;-84
2023/12/12 05:45:25;;;;;;;23.10;7.07;;;8.40;1.00;;;;;;6217543;23;20895;-83
2023/12/12 05:47:50;;;;;;;21.53;6.60;;;8.40;1.00;;;;;;6218336;23;20150;-84
2023/12/12 05:50:16;;;;;;;17.83;5.40;;;8.40;1.00;;;;;;6218423;23;20377;-85
2023/12/12 05:52:42;;;;;;;29.00;5.97;;;8.40;1.00;;;;;;6218741;23;20625;-84
2023/12/12 05:55:08;;;;;;;24.60;6.60;;;8.40;1.00;;;;;;6217936;23;20188;-86
2023/12/12 05:57:35;;;;;;;23.70;6.23;;;8.40;1.00;;;;;;6220314;23;20147;-86
2023/12/12 06:00:02;;;;;;;24.30;5.25;;;8.50;1.00;;;;;;6220350;23;20716;-84
2023/12/12 06:02:28;;;;;;;28.30;6.70;;;8.50;1.00;;;;;;6218442;23;20178;-84
2023/12/12 06:04:56;;;;;;;23.07;5.47;;;8.50;1.00;;;;;;6218816;23;20419;-85
2023/12/12 06:07:22;;;;;;;24.90;5.93;;;8.60;1.00;;;;;;6218273;23;20408;-84
2023/12/12 06:09:48;;;;;;;23.50;6.40;;;8.60;1.00;;;;;;6218943;23;20965;-85
2023/12/12 06:12:14;;;;;;;19.80;5.43;;;8.70;1.00;;;;;;6218367;23;20585;-84
2023/12/12 06:14:41;;;;;;;23.20;4.60;;;8.70;1.00;;;;;;6218782;23;20182;-85
2023/12/12 06:17:14;;;;;;;17.13;4.00;;;8.80;1.00;;;;;;6219453;23;20377;-84
2023/12/12 06:19:47;;;;;;;17.37;4.83;;;8.80;1.00;;;;;;6220805;23;20385;-84
2023/12/12 06:22:13;;;;;;;20.07;5.10;;;8.90;1.00;;;;;;6222591;23;20487;-85
2023/12/12 06:24:45;;;;;;;19.93;4.00;;;8.90;1.00;;;;;;6221952;23;20389;-85
2023/12/12 06:27:13;;;;;;;19.43;4.30;;;9.00;1.00;;;;;;6221373;23;20435;-85
2023/12/12 06:29:39;;;;;;;25.10;5.30;;;9.00;1.00;;;;;;6221936;23;20451;-84
2023/12/12 06:32:10;;;;;;;18.00;4.47;;;9.00;1.00;;;;;;6222082;23;20413;-84
2023/12/12 06:34:35;;;;;;;19.10;6.03;;;9.00;1.00;;;;;;6228045;23;20295;-87
2023/12/12 06:37:01;;;;;;;18.20;4.60;;;9.00;1.00;;;;;;6229705;23;20393;-86
2023/12/12 06:39:26;;;;;;;18.63;4.93;;;9.00;1.00;;;;;;6222470;23;20168;-86
2023/12/12 06:41:52;;;;;;;19.03;4.93;;;9.00;1.00;;;;;;6222597;23;20193;-85
2023/12/12 06:44:18;;;;;;;14.00;5.00;;;9.00;1.00;;;;;;6223379;23;20158;-85
2023/12/12 06:46:43;;;;;;;22.83;4.70;;;9.00;1.00;;;;;;6223133;23;20157;-85
2023/12/12 06:49:09;;;;;;;20.47;5.87;;;9.00;1.00;;;;;;6223088;23;20158;-86
2023/12/12 06:51:35;;;;;;;27.83;4.10;;;9.00;1.00;;;;;;6232255;23;20193;-85
2023/12/12 06:54:01;;;;;;;15.83;5.60;;;9.00;1.00;;;;;;6234054;23;20420;-86
2023/12/12 06:56:32;;;;;;;17.93;4.90;;;9.00;1.00;;;;;;6231650;23;20373;-84
2023/12/12 06:59:01;;;;;;;15.87;4.37;;;9.00;1.00;;;;;;6219033;23;20494;-84
2023/12/12 07:01:26;;;;;;;18.13;4.30;;;9.00;1.00;;;;;;6220517;23;20397;-84
2023/12/12 07:03:52;;;;;;;12.80;4.30;;;9.00;1.00;;;;;;6218101;23;20464;-85
2023/12/12 07:06:21;;;;;;;18.00;5.27;;;9.00;1.00;;;;;;6219480;23;20590;-85
2023/12/12 07:08:51;;;;;;;17.43;4.70;;;9.10;1.00;;;;;;6218894;23;20158;-84
2023/12/12 07:11:17;;;;;;;30.03;5.17;;;9.10;1.00;;;;;;6218287;23;20924;-85
2023/12/12 07:14:01;;;;;;;15.47;4.40;;;9.10;1.00;;;;;;6219910;23;20417;-84
2023/12/12 07:16:37;;;;;;;12.53;4.20;;;9.10;1.00;;;;;;6218761;23;20302;-85
2023/12/12 07:19:03;;;;;;;13.83;4.50;;;9.10;1.00;;;;;;6218380;23;20691;-85
2023/12/12 07:21:28;;;;;;;13.80;4.30;;;9.10;1.00;;;;;;6221458;23;20405;-86
2023/12/12 07:24:01;;;;;;;22.93;4.50;;;9.10;1.00;;;;;;6223807;23;20158;-86
2023/12/12 07:26:27;;;;;;;15.87;4.40;;;9.20;1.00;;;;;;6221217;23;20158;-85
2023/12/12 07:28:52;;;;;;;21.40;7.67;;;9.30;1.00;;;;;;6219077;23;20728;-85
2023/12/12 07:31:27;;;;;;;26.40;8.60;;;9.30;1.00;;;;;;6215146;23;20217;-85
2023/12/12 07:33:52;;;;;;;32.40;10.00;;;9.30;1.00;;;;;;6220248;23;20181;-87
2023/12/12 07:36:24;;;;;;;24.57;7.50;;;9.40;1.00;;;;;;6230678;23;20377;-85
2023/12/12 07:39:13;;;;;;;14.37;5.70;;;9.40;1.00;;;;;;6226534;23;20146;-86
2023/12/12 07:42:05;;;;;;;;;;;;;;;;;;;;;
2023/12/12 07:44:42;;;;;;;15.23;4.37;;;9.50;1.00;;;;;;6229451;23;20361;-87
2023/12/12 07:47:08;;;;;;;14.27;4.30;;;9.50;1.00;;;;;;6227068;23;20405;-87
2023/12/12 07:49:51;;;;;;;13.83;3.90;;;9.50;1.00;;;;;;6225864;23;20397;-87
2023/12/12 07:52:33;;;;;;;24.80;6.20;;;9.50;99.90;;;;;;6224817;23;20177;-86
2023/12/12 07:55:11;;;;;;;21.97;3.87;;;9.50;99.90;;;;;;6228380;23;20427;-86
2023/12/12 07:57:47;;;;;;;17.70;5.47;;;9.50;99.90;;;;;;6228817;23;20472;-86
2023/12/12 08:00:45;;;;;;;14.13;4.23;;;9.60;99.90;;;;;;6221131;23;20396;-86
2023/12/12 08:03:21;;;;;;;14.70;3.80;;;9.60;99.90;;;;;;6227757;23;20385;-86
2023/12/12 08:06:00;;;;;;;20.50;5.27;;;9.60;99.90;;;;;;6226661;23;20413;-86
2023/12/12 08:08:31;;;;;;;17.70;4.47;;;9.60;99.90;;;;;;6226323;23;20387;-86
2023/12/12 08:11:29;;;;;;;13.90;4.50;;;9.60;99.90;;;;;;6217279;23;20488;-86
2023/12/12 08:14:08;;;;;;;13.07;4.60;;;9.60;99.90;;;;;;6212275;23;20474;-86
2023/12/12 08:23:15;;;;;;;32.60;9.07;;;9.70;1.00;;;;;;6206019;23;20446;-85
2023/12/12 08:29:15;;;;;;;23.27;6.80;;;9.90;99.90;;;;;;6193887;23;20389;-86
2023/12/12 08:38:47;;;;;;;;;;;;;;;;;;;;;
2023/12/12 08:41:34;;;;;;;14.67;6.03;;;10.00;99.90;;;;;;6217361;23;20472;-87
2023/12/12 08:44:03;;;;;;;14.30;5.07;;;10.00;99.90;;;;;;6214852;23;20473;-85
2023/12/12 08:46:50;;;;;;;;;;;;;;;;;;;;;
2023/12/12 08:49:37;;;;;;;11.23;4.60;;;10.10;99.90;;;;;;6215993;23;20433;-85
2023/12/12 08:52:16;;;;;;;11.73;4.50;;;10.20;99.90;;;;;;6217024;23;20751;-86
2023/12/12 08:57:50;;;;;;;13.90;3.80;;;10.50;1.00;;;;;;6218365;23;20464;-85
2023/12/12 09:00:45;;;;;;;12.87;4.17;;;10.80;1.00;;;;;;6215070;23;20424;-85
2023/12/12 09:03:23;;;;;;;;;;;;;;;;;;;;;
2023/12/12 09:06:06;;;;;;;10.50;4.00;;;10.90;71.80;;;;;;6217226;23;20456;-85
2023/12/12 09:08:53;;;;;;;17.15;4.90;;;11.10;99.90;;;;;;6214454;23;20385;-86
2023/12/12 09:11:27;;;;;;;18.93;5.60;;;11.10;99.90;;;;;;6212858;23;20184;-84
2023/12/12 09:14:15;;;;;;;11.80;3.37;;;11.40;99.90;;;;;;6213393;23;20474;-86
2023/12/12 09:16:56;;;;;;;12.10;3.90;;;11.30;1.00;;;;;;6212376;23;20416;-85
2023/12/12 09:22:21;;;;;;;15.07;4.10;;;11.10;99.90;;;;;;6214797;22;20499;-86
2023/12/12 09:24:46;;;;;;;14.23;3.97;;;11.10;1.00;;;;;;6214671;23;20362;-87
2023/12/12 09:27:14;;;;;;;8.90;3.73;;;11.20;99.90;;;;;;6214505;23;20161;-88
2023/12/12 09:29:41;;;;;;;16.63;4.17;;;11.30;99.90;;;;;;6214020;23;20165;-85
2023/12/12 09:32:07;;;;;;;15.20;4.13;;;11.20;1.00;;;;;;6214655;23;20440;-87
2023/12/12 09:34:33;;;;;;;12.10;4.50;;;11.30;1.00;;;;;;6214621;23;20495;-87
2023/12/12 09:36:58;;;;;;;21.00;4.07;;;11.10;1.00;;;;;;6215038;23;20153;-88
2023/12/12 09:39:24;;;;;;;15.00;4.27;;;11.10;99.90;;;;;;6215184;23;21020;-87
2023/12/12 09:41:50;;;;;;;15.77;3.73;;;11.00;99.90;;;;;;6214435;23;20161;-85
2023/12/12 09:44:19;;;;;;;12.63;4.20;;;11.10;99.90;;;;;;6213829;23;20159;-87
2023/12/12 09:46:48;;;;;;;11.87;3.90;;;11.00;99.90;;;;;;6215223;23;20396;-87
2023/12/12 09:49:14;;;;;;;14.10;3.63;;;11.00;1.00;;;;;;6214764;23;20377;-86
2023/12/12 09:51:43;;;;;;;13.77;3.97;;;11.10;99.90;;;;;;6214047;23;20388;-86
2023/12/12 09:54:11;;;;;;;9.50;3.63;;;11.10;99.90;;;;;;6214238;23;20432;-86
2023/12/12 09:56:37;;;;;;;12.43;4.83;;;11.10;99.90;;;;;;6215127;23;20688;-86
2023/12/12 09:59:04;;;;;;;14.50;5.70;;;11.20;99.90;;;;;;6214816;23;20704;-86
2023/12/12 10:01:33;;;;;;;20.23;6.03;;;11.30;99.90;;;;;;6214828;23;20420;-85
2023/12/12 10:04:06;;;;;;;9.67;3.83;;;11.60;99.90;;;;;;6212375;23;20408;-87
2023/12/12 10:06:52;;;;;;;15.13;4.47;;;11.70;99.90;;;;;;6215293;23;20369;-86
2023/12/12 10:09:26;;;;;;;14.33;5.20;;;11.80;99.90;;;;;;6215896;23;20448;-86
2023/12/12 10:11:51;;;;;;;16.03;4.50;;;11.80;99.90;;;;;;6214179;23;20448;-86
2023/12/12 10:14:48;;;;;;;15.67;3.83;;;11.70;99.90;;;;;;6213986;23;20499;-86
2023/12/12 10:17:14;;;;;;;5.33;2.77;;;11.70;1.00;;;;;;6185090;23;20162;-86
2023/12/12 10:19:41;;;;;;;12.00;3.70;;;11.70;1.00;;;;;;6212656;23;20389;-87
2023/12/12 10:22:10;;;;;;;13.60;3.37;;;11.90;1.00;;;;;;6213212;23;20412;-87
2023/12/12 10:24:36;;;;;;;13.10;3.80;;;11.80;99.90;;;;;;6211046;23;20396;-87
2023/12/12 10:27:05;;;;;;;9.07;3.10;;;11.80;99.90;;;;;;6214054;23;20377;-86
2023/12/12 10:29:32;;;;;;;17.03;3.83;;;11.60;1.00;;;;;;6213608;23;20378;-87
2023/12/12 10:32:02;;;;;;;20.60;3.80;;;11.70;94.20;;;;;;6212050;23;20381;-87
2023/12/12 10:34:27;;;;;;;18.13;5.43;;;11.60;1.00;;;;;;6211561;23;20417;-87
2023/12/12 10:36:54;;;;;;;8.23;3.00;;;11.40;99.90;;;;;;6213443;23;20412;-86
2023/12/12 10:39:20;;;;;;;13.10;4.10;;;11.40;1.00;;;;;;6213987;23;20213;-87
2023/12/12 10:41:56;;;;;;;19.63;4.03;;;11.30;99.90;;;;;;6213866;23;20718;-85
2023/12/12 10:44:30;;;;;;;10.80;3.40;;;11.10;1.00;;;;;;6213034;23;20150;-88
2023/12/12 10:46:57;;;;;;;11.67;3.70;;;11.10;1.00;;;;;;6214126;23;20735;-86
2023/12/12 10:49:28;;;;;;;11.03;3.43;;;11.20;1.00;;;;;;6213809;23;20400;-87
2023/12/12 10:51:54;;;;;;;13.30;3.90;;;11.20;1.00;;;;;;6212166;23;20677;-87
2023/12/12 10:54:22;;;;;;;11.57;4.50;;;11.20;1.00;;;;;;6212592;23;20873;-87
2023/12/12 10:56:49;;;;;;;17.27;6.20;;;11.30;1.00;;;;;;6213232;23;20473;-87
2023/12/12 10:59:19;;;;;;;9.17;3.40;;;11.30;1.00;;;;;;6211493;23;20385;-86
2023/12/12 11:01:47;;;;;;;7.80;4.53;;;11.20;1.00;;;;;;6214407;23;20376;-86
2023/12/12 11:04:17;;;;;;;7.10;4.40;;;11.30;1.00;;;;;;6212586;23;20404;-84
2023/12/12 11:06:43;;;;;;;11.20;4.00;;;11.40;1.00;;;;;;6211792;23;20408;-85
2023/12/12 11:09:13;;;;;;;13.33;3.83;;;11.30;1.00;;;;;;6213622;23;20460;-86
2023/12/12 11:11:41;;;;;;;10.97;4.47;;;11.30;1.00;;;;;;6213387;23;20385;-86
2023/12/12 11:14:09;;;;;;;12.17;3.30;;;11.10;1.00;;;;;;6216345;23;20413;-84
2023/12/12 11:16:34;;;;;;;12.60;4.50;;;11.10;99.80;;;;;;6220066;23;20373;-85
2023/12/12 11:19:01;;;;;;;9.87;4.63;;;11.10;99.90;;;;;;6218760;23;20376;-84
2023/12/12 11:21:44;;;;;;;8.60;3.87;;;11.20;99.90;;;;;;6216760;23;20240;-87
2023/12/12 11:24:10;;;;;;;7.10;3.40;;;11.30;99.90;;;;;;6213399;23;20429;-88
2023/12/12 11:26:36;;;;;;;11.70;4.20;;;11.40;99.90;;;;;;6213936;23;20393;-86
2023/12/12 11:29:05;;;;;;;8.23;3.87;;;11.40;99.90;;;;;;6217922;23;20161;-86
2023/12/12 11:31:34;;;;;;;9.47;4.40;;;11.20;99.90;;;;;;6217031;23;20404;-87
2023/12/12 11:34:04;;;;;;;12.80;6.70;;;11.20;99.90;;;;;;6214732;23;20452;-85
2023/12/12 11:36:51;;;;;;;7.70;4.20;;;11.20;99.90;;;;;;6221028;23;20373;-85
2023/12/12 11:39:23;;;;;;;12.30;4.90;;;11.00;99.90;;;;;;6219001;23;20353;-86
2023/12/12 11:41:51;;;;;;;13.90;4.60;;;11.00;1.00;;;;;;6219964;23;20378;-85
2023/12/12 11:44:20;;;;;;;12.50;4.97;;;10.90;1.00;;;;;;6220647;23;20772;-85
2023/12/12 11:46:46;;;;;;;19.43;4.67;;;11.00;1.00;;;;;;6220693;23;20412;-84
2023/12/12 11:49:23;;;;;;;12.83;4.13;;;10.90;1.00;;;;;;6218462;23;20389;-85
2023/12/12 11:51:50;;;;;;;10.67;4.83;;;10.90;1.00;;;;;;6220181;23;20138;-84
2023/12/12 11:54:25;;;;;;;14.77;5.97;;;10.80;1.00;;;;;;6220075;23;20509;-85
2023/12/12 11:57:20;;;;;;;13.53;5.20;;;10.70;1.00;;;;;;6219968;23;20440;-87
2023/12/12 11:59:47;;;;;;;14.53;5.60;;;10.50;1.00;;;;;;6212001;23;20389;-87
2023/12/12 12:02:13;;;;;;;21.87;7.77;;;10.50;1.00;;;;;;6216336;23;20408;-89
2023/12/12 12:04:38;;;;;;;12.77;5.10;;;10.40;1.00;;;;;;6218659;23;20424;-87
2023/12/12 12:07:04;;;;;;;14.30;6.33;;;10.50;3.30;;;;;;6215080;23;20173;-86
2023/12/12 12:09:29;;;;;;;18.90;5.83;;;10.50;8.90;;;;;;6217191;23;20154;-87
2023/12/12 12:11:55;;;;;;;20.00;7.93;;;10.50;7.80;;;;;;6215358;23;20389;-87
2023/12/12 12:14:22;;;;;;;20.43;8.50;;;10.60;17.50;;;;;;6217249;23;20177;-88
2023/12/12 12:16:55;;;;;;;20.83;7.37;;;10.60;15.70;;;;;;6215184;23;20208;-87
2023/12/12 12:19:34;;;;;;;23.50;8.90;;;10.60;14.10;;;;;;6216713;23;20361;-86
2023/12/12 12:22:12;;;;;;;29.30;10.67;;;10.50;12.70;;;;;;6215059;23;20380;-87
2023/12/12 12:24:47;;;;;;;27.33;7.63;;;10.40;12.10;;;;;;6216146;23;20846;-88
2023/12/12 12:27:14;;;;;;;18.17;7.90;;;10.30;16.80;;;;;;6214063;23;20480;-88
2023/12/12 12:29:40;;;;;;;27.87;12.33;;;10.20;16.90;;;;;;6214997;23;20384;-88
2023/12/12 12:32:18;;;;;;;19.33;9.00;;;10.10;26.10;;;;;;6212683;23;20389;-88
2023/12/12 12:34:44;;;;;;;23.13;9.70;;;10.10;35.00;;;;;;6214313;23;20778;-88
2023/12/12 12:37:32;;;;;;;17.47;7.33;;;10.10;39.70;;;;;;6213822;23;20390;-88
2023/12/12 12:39:57;;;;;;;26.17;7.80;;;10.10;39.10;;;;;;6215111;23;20644;-89
2023/12/12 12:42:37;;;;;;;19.57;5.43;;;10.20;47.40;;;;;;6215009;23;20435;-89
2023/12/12 12:45:04;;;;;;;18.73;7.10;;;10.20;45.50;;;;;;6213931;23;20142;-88
2023/12/12 12:47:31;;;;;;;17.53;6.03;;;10.20;33.90;;;;;;6213493;23;20389;-87
2023/12/12 12:49:58;;;;;;;20.10;7.90;;;10.30;44.60;;;;;;6214899;23;20469;-89
2023/12/12 12:52:24;;;;;;;21.30;7.80;;;10.30;39.20;;;;;;6215789;23;20393;-89
2023/12/12 12:54:50;;;;;;;17.17;7.40;;;10.40;45.80;;;;;;6212976;23;20429;-88
2023/12/12 12:57:16;;;;;;;29.37;7.80;;;10.50;26.40;;;;;;6212742;23;20381;-87
2023/12/12 12:59:42;;;;;;;23.87;7.30;;;10.50;14.30;;;;;;6215588;23;20723;-88
2023/12/12 13:02:08;;;;;;;27.57;8.40;;;10.60;16.90;;;;;;6213276;23;20154;-87
2023/12/12 13:04:39;;;;;;;16.40;7.03;;;10.50;1.30;;;;;;6215132;23;20392;-88
2023/12/12 13:07:05;;;;;;;17.40;6.97;;;10.50;12.30;;;;;;6215597;23;20362;-88
2023/12/12 13:09:31;;;;;;;21.80;7.63;;;10.50;17.60;;;;;;6214314;23;20864;-88
2023/12/12 13:12:03;;;;;;;23.03;7.50;;;10.50;19.70;;;;;;6214650;23;20381;-89
2023/12/12 13:14:30;;;;;;;27.20;7.57;;;10.60;14.90;;;;;;6214702;23;20905;-89
2023/12/12 13:16:56;;;;;;;22.50;9.00;;;10.60;13.10;;;;;;6214959;23;20373;-89
2023/12/12 13:19:30;;;;;;;23.17;7.80;;;10.60;19.40;;;;;;6213588;23;20400;-89
2023/12/12 13:21:55;;;;;;;22.70;9.10;;;10.50;24.80;;;;;;6213152;23;20389;-90
2023/12/12 13:24:22;;;;;;;19.17;8.00;;;10.50;31.20;;;;;;6214737;23;20468;-89
2023/12/12 13:26:49;;;;;;;24.40;8.30;;;10.60;33.40;;;;;;6212632;23;20162;-88
2023/12/12 13:29:19;;;;;;;21.53;8.97;;;10.70;34.00;;;;;;6214757;23;20392;-89